METAR Data
IDs: Format: Raw Decoded Include TAF

Data at: 1112 UTC 16 Feb 2019

PABT 161053Z 36008KT 10SM SCT160 M23/M25 A3016 RMK AO2 SLP239 SCT IS THIN T12281250 PNO $
PABT 160953Z 02009KT 10SM SCT160 M22/M27 A3016 RMK AO2 SLP238 SCT IS THIN T12221267 PNO $
PABT 160853Z 36006KT 10SM CLR M23/M27 A3020 RMK AO2 SLP253 T12331272 411781239 58005 PNO
PABT 160753Z 01008KT 10SM CLR M22/M27 A3020 RMK AO2 SLP253 T12221267 PNO
PABT 160653Z 01006KT 10SM CLR M22/M26 A3022 RMK AO2 SLP259 T12221261 PNO
PABT 160553Z 01006KT 10SM CLR M22/M26 A3021 RMK AO2 SLP259 4/043 T12171261 11183 21222 51002 PNO
PABT 160453Z 02007KT 10SM CLR M21/M26 A3021 RMK AO2 SLP258 T12111256 PNO
PABT 160353Z 02007KT 10SM FEW044 M20/M24 A3021 RMK AO2 SLP257 T12001244 PNO
PABT 160253Z 03011KT 10SM FEW037 SCT200 M20/M24 A3021 RMK AO2 SLP256 T12001244 58006 PNO
PABT 160153Z 02009KT 10SM FEW037 SCT200 M19/M24 A3022 RMK SLP261 T11891239 PNO VIA AUTODIAL
PABT 160053Z 03010KT 10SM FEW035 SCT200 M19/M24 A3023 RMK AO2 SLP262 T11891239 PNO
PABT 152353Z 02009KT 10SM BKN035 BKN200 M19/M24 A3023 RMK AO2 SLP263 4/043 T11891239 11178 21206 56005 PNO
PABT 152253Z 03012KT 10SM BKN034 M18/M23 A3023 RMK AO2 SLP263 T11831233 PNO
PABT 152153Z 03010KT 10SM BKN037 M18/M23 A3023 RMK AO2 SLP264 T11831233 PNO $
PABT 152053Z 01007KT 10SM BKN037 M19/M24 A3024 RMK AO2 SLP268 T11941239 53002 PNO $
PABT 151953Z 36007KT 10SM BKN037 M19/M24 A3023 RMK AO2 SLP266 T11941239 PNO $
PABT 151853Z 01007KT 10SM BKN037 M21/M24 A3023 RMK SLP266 T12061244 PNO $ VIA AUTODIAL
PABT 151753Z 36007KT 10SM BKN039 M21/M24 A3024 RMK SLP265 4/043 T12061244 11194 21217 51001 PNO $ VIA AUTODIAL
PABT 151653Z 36007KT 10SM BKN039 M21/M24 A3023 RMK AO2 SLP264 T12061244 PNO $
PABT 151553Z 01006KT 10SM OVC039 M20/M24 A3024 RMK AO2 SLP266 T12001239 PNO $
PABT 151453Z 36006KT 10SM OVC041 M20/M24 A3023 RMK AO2 SLP264 T12001239 53006 PNO $
PABT 151353Z 35006KT 10SM OVC040 M20/M23 A3022 RMK AO2 SLP260 T12001233 PNO $
PABT 151253Z 36006KT 10SM BKN040 M20/M23 A3021 RMK AO2 SLP257 T12001233 PNO $
PABT 151153Z COR 35006KT 10SM FEW040 M22/M24 A3021 RMK AO2 SLP258 4/043 T12171244 11211 21239 58000 PNO $
PABT 151053Z 33005KT 10SM SCT042 M23/M26 A3021 RMK AO2 SLP259 T12331261 PNO $
PABT 150953Z 34005KT 10SM SCT044 M23/M25 A3022 RMK AO2 SLP261 T12281250 PNO $
PABT 150853Z 32006KT 10SM SCT044 M23/M26 A3021 RMK AO2 SLP259 T12281261 411671239 53002 PNO $
PABT 150753Z 34004KT 10SM SCT039 M23/M26 A3021 RMK AO2 SLP256 T12281256 PNO $
PABT 150653Z 34003KT 10SM SCT039 M23/M26 A3020 RMK AO2 SLP252 T12331261 PNO $
PABT 150553Z 35003KT 10SM OVC040 M21/M24 A3021 RMK AO2 SLP257 4/043 T12111244 11194 21211 58011 PNO $
PABT 150453Z 33004KT 10SM OVC038 M20/M24 A3022 RMK AO2 SLP259 T12001244 PNO $
PABT 150353Z 32004KT 10SM OVC038 M20/M24 A3023 RMK AO2 SLP264 T12001239 PNO $
PABT 150253Z 35004KT 10SM OVC039 M20/M24 A3024 RMK AO2 SLP267 T12001239 58014 PNO $
PABT 150153Z 34005KT 10SM FEW028 OVC042 M20/M24 A3026 RMK AO2 SLP274 T12001239 PNO
PABT 150053Z 33005KT 10SM FEW028 OVC042 M20/M22 A3027 RMK AO2 SLP278 T12001222 PNO
PABT 142353Z 32005KT 10SM FEW028 OVC039 M20/M23 A3028 RMK AO2 SLP281 60000 931000 4/043 T12001228 11200 21217 58010 PNO